ADDS METAR Data INFO
IDs: Format: Raw Decoded Include TAF

Data at: 2114 UTC 22 Oct 2017

KY49 222055Z AUTO 22014G22KT 10SM CLR 15/M02 A2981 RMK AO2 T01511025
KY49 222035Z AUTO 24013G21KT 10SM CLR 15/M02 A2981 RMK AO2 T01511021
KY49 222015Z AUTO 24015G23KT 10SM CLR 15/M03 A2982 RMK AO2 T01471031
KY49 221955Z AUTO 25014G24KT 10SM CLR 15/M03 A2982 RMK AO2 T01501033
KY49 221935Z AUTO 24017G22KT 10SM CLR 15/M02 A2982 RMK AO2 T01511019
KY49 221915Z AUTO 23010G19KT 10SM CLR 15/M01 A2983 RMK AO2 T01471012
KY49 221855Z AUTO 25013G20KT 10SM CLR 15/M02 A2984 RMK AO2 T01451017
KY49 221835Z AUTO 27016G21KT 10SM CLR 14/M02 A2985 RMK AO2 T01421025
KY49 221815Z AUTO 25013G21KT 220V280 10SM CLR 14/M01 A2985 RMK AO2 T01401015
KY49 221755Z AUTO 25009G20KT 10SM CLR 14/00 A2987 RMK AO2 T01360000 10136 20051
KY49 221735Z AUTO 26012G21KT 10SM CLR 13/00 A2988 RMK AO2 T01281004
KY49 221715Z AUTO 26012G20KT 10SM CLR 12/00 A2988 RMK AO2 T01231001
KY49 221655Z AUTO 25013G19KT 10SM CLR 12/00 A2988 RMK AO2 T01190002
KY49 221635Z AUTO 25012G21KT 10SM CLR 11/00 A2987 RMK AO2 T01110003
KY49 221615Z AUTO 25014G20KT 10SM CLR 11/01 A2987 RMK AO2 T01070005
KY49 221555Z AUTO 24013G20KT 10SM CLR 10/01 A2987 RMK AO2 T01040005
KY49 221535Z AUTO 25013G19KT 10SM CLR 10/01 A2986 RMK AO2 T00970010
KY49 221515Z AUTO 25009G14KT 10SM CLR 09/01 A2985 RMK AO2 T00910010
KY49 221455Z AUTO 25012G19KT 10SM CLR 08/01 A2985 RMK AO2 T00820009
KY49 221435Z AUTO 26012G16KT 10SM CLR 08/01 A2985 RMK AO2 T00770011
KY49 221415Z AUTO 25011KT 10SM CLR 07/01 A2985 RMK AO2 T00700013
KY49 221355Z AUTO 25009G16KT 10SM CLR 06/01 A2984 RMK AO2 T00620013
KY49 221335Z AUTO 25008G15KT 10SM CLR 06/01 A2984 RMK AO2 T00560014
KY49 221315Z AUTO 25009KT 10SM CLR 05/02 A2983 RMK AO2 T00520015
KY49 221255Z AUTO 24008KT 10SM CLR 05/02 A2981 RMK AO2 T00540015
KY49 221235Z AUTO 25009KT 10SM CLR 06/02 A2981 RMK AO2 T00550017
KY49 221215Z AUTO 24009G14KT 10SM CLR 06/02 A2980 RMK AO2 T00580020
KY49 221155Z AUTO 25009G16KT 10SM CLR 06/02 A2979 RMK AO2 70001 T00610022 10081 20061
KY49 221135Z AUTO 24008KT 10SM CLR 06/03 A2979 RMK AO2 T00620025
KY49 221115Z AUTO 24008G14KT 10SM CLR 06/03 A2978 RMK AO2 T00640026
KY49 221055Z AUTO 24009KT 10SM CLR 06/03 A2979 RMK AO2 T00630026
KY49 221035Z AUTO 24008KT 10SM CLR 07/03 A2978 RMK AO2 T00660025
KY49 221015Z AUTO 25009G15KT 10SM CLR 07/03 A2978 RMK AO2 T00700026
KY49 220955Z AUTO 25011G19KT 10SM SCT050 07/03 A2977 RMK AO2 T00720027
KY49 220935Z AUTO 24012G20KT 10SM SCT028 SCT050 08/03 A2975 RMK AO2 T00750030
KY49 220915Z AUTO 25012G19KT 10SM SCT030 SCT039 BKN045 08/03 A2976 RMK AO2 T00790033
KY49 220855Z AUTO 24012G16KT 10SM OVC037 08/03 A2975 RMK AO2 T00800034
KY49 220835Z AUTO 24009KT 10SM BKN041 BKN050 BKN055 08/04 A2974 RMK AO2 T00780038
KY49 220815Z AUTO 24008KT 10SM SCT044 OVC050 08/04 A2975 RMK AO2 T00790043
KY49 220755Z AUTO 23013G16KT 10SM SCT037 SCT044 OVC050 08/05 A2974 RMK AO2 T00800050
KY49 220735Z AUTO 22008KT 10SM SCT037 OVC050 08/05 A2975 RMK AO2 T00790054
KY49 220715Z AUTO 21006KT 10SM SCT045 OVC050 08/06 A2973 RMK AO2 T00780055
KY49 220655Z AUTO 21005KT 10SM BKN043 BKN050 08/06 A2974 RMK AO2 T00770055
KY49 220635Z AUTO 21007KT 10SM SCT041 BKN048 08/05 A2974 RMK AO2 T00750053
KY49 220615Z AUTO 22007KT 10SM SCT039 BKN046 08/05 A2973 RMK AO2 T00780054
KY49 220555Z AUTO 22007KT 10SM SCT035 SCT046 08/06 A2972 RMK AO2 LTG DSNT S T00810055 10108 20080 401880080
KY49 220535Z AUTO 22007KT 10SM BKN033 BKN050 08/06 A2971 RMK AO2 T00840056
KY49 220515Z AUTO 24008KT 10SM BKN055 08/06 A2970 RMK AO2 T00830057
KY49 220455Z AUTO 25008G14KT 10SM OVC065 09/06 A2969 RMK AO2 T00850059
KY49 220435Z AUTO 24008KT 10SM OVC065 09/06 A2970 RMK AO2 T00850060
KY49 220415Z AUTO 24008KT 10SM OVC065 08/06 A2970 RMK AO2 T00840060
KY49 220355Z AUTO 24009G14KT 10SM BKN065 09/06 A2970 RMK AO2 T00850061
KY49 220335Z AUTO 24010G16KT 10SM CLR 09/06 A2969 RMK AO2 T00860061
KY49 220315Z AUTO 24009G16KT 10SM CLR 09/06 A2967 RMK AO2 T00870062
KY49 220255Z AUTO 25011KT 10SM CLR 09/07 A2968 RMK AO2 T00910065
KY49 220235Z AUTO 24009G15KT 10SM CLR 10/07 A2968 RMK AO2 T00950071
KY49 220215Z AUTO 24009KT 10SM CLR 10/08 A2967 RMK AO2 T00970078
KY49 220155Z AUTO 24008KT 10SM CLR 10/08 A2966 RMK AO2 T00950082
KY49 220135Z AUTO 22005KT 10SM CLR 10/08 A2965 RMK AO2 T00990084
KY49 220115Z AUTO 23005KT 10SM BKN044 BKN055 10/09 A2965 RMK AO2 LTG DSNT N AND S T01020085
KY49 220055Z AUTO 23007KT 10SM OVC042 11/09 A2964 RMK AO2 LTG DSNT NE THRU S T01060087
KY49 220035Z AUTO 23006KT 10SM BKN035 OVC043 11/09 A2964 RMK AO2 LTG DSNT NE AND S T01080090
KY49 220015Z AUTO 23007KT 10SM SCT028 OVC035 11/09 A2962 RMK AO2 LTG DSNT NE THRU S T01070092
KY49 212355Z AUTO 25004KT 10SM VCTS OVC028 11/10 A2960 RMK AO2 LTG DSNT E THRU S 60001 T01070095 10168 20106
KY49 212335Z AUTO 26004KT 10SM VCTS OVC026 11/10 A2959 RMK AO2 LTG DSNT E THRU S T01070096
KY49 212315Z AUTO 27008KT 10SM -RA SCT020 OVC026 11/10 A2958 RMK AO2 LTG DSNT SE AND S T01080095
KY49 212255Z AUTO 27015G20KT 7SM RA SCT009 OVC017 11/09 A2958 RMK AO2 LTG DSNT S THRU NW P0001 T01140091
KY49 212235Z AUTO 27018G24KT 10SM VCTSDZ OVC009 14/12 A2955 RMK AO2 LTG DSNT S AND SW T01380122
KY49 212215Z AUTO 17009KT 10SM -RA OVC011 17/15 A2952 RMK AO2 LTG DSNT S THRU NW T01670154
KY49 212155Z AUTO 15008KT 10SM -RA OVC009 17/15 A2952 RMK AO2 LTG DSNT S AND NW T01660151
KY49 212135Z AUTO 15006KT 10SM OVC007 16/15 A2952 RMK AO2 LTG DSNT S T01630150
KY49 212115Z AUTO 15010KT 10SM OVC007 16/15 A2952 RMK AO2 LTG DSNT S T01600150
KY49 212055Z AUTO 15009KT 10SM OVC005 16/15 A2952 RMK AO2 LTG DSNT S T01570150
KY49 212035Z AUTO 14008KT 7SM OVC005 15/15 A2952 RMK AO2 LTG DSNT S T01530147
KY49 212015Z AUTO 16007KT 4SM BR OVC005 15/15 A2952 RMK AO2 T01520146
KY49 211955Z AUTO 16008KT 4SM BR OVC005 15/15 A2952 RMK AO2 T01520145
KY49 211935Z AUTO 15008G15KT 7SM OVC005 15/15 A2952 RMK AO2 T01520145
KY49 211915Z AUTO 16010G16KT 7SM OVC007 15/14 A2952 RMK AO2 T01520143
KY49 211855Z AUTO 15009G15KT 5SM BR OVC007 15/14 A2953 RMK AO2 T01510142
KY49 211835Z AUTO 16008G15KT 4SM BR OVC007 15/14 A2953 RMK AO2 T01510141
KY49 211815Z AUTO 15011G14KT 7SM OVC009 15/14 A2954 RMK AO2 T01520140
KY49 211755Z AUTO 16010G22KT 10SM OVC011 16/14 A2954 RMK AO2 T01550137 10165 20155
KY49 211735Z AUTO 15012G17KT 10SM OVC011 16/13 A2954 RMK AO2 T01570133
KY49 211715Z AUTO 15011G17KT 10SM OVC015 16/13 A2954 RMK AO2 T01600131
KY49 211655Z AUTO 16013G16KT 10SM OVC017 16/13 A2954 RMK AO2 T01600127
KY49 211635Z AUTO 15011G16KT 10SM OVC019 16/13 A2955 RMK AO2 T01600125
KY49 211615Z AUTO 16012G20KT 10SM OVC019 16/13 A2955 RMK AO2 T01610125
KY49 211555Z AUTO 15009G16KT 120V180 10SM OVC019 16/13 A2954 RMK AO2 T01630126
KY49 211535Z AUTO 15010G16KT 10SM OVC019 16/13 A2954 RMK AO2 T01620125
KY49 211515Z AUTO 15009G17KT 10SM OVC019 16/13 A2955 RMK AO2 T01630126
KY49 211455Z AUTO 15012G18KT 10SM OVC021 16/13 A2955 RMK AO2 T01630126
KY49 211435Z AUTO 16011G18KT 10SM OVC021 16/13 A2954 RMK AO2 T01630125
KY49 211415Z AUTO 16013G17KT 10SM OVC021 16/13 A2954 RMK AO2 T01620126
KY49 211355Z AUTO 16011KT 10SM OVC021 16/13 A2954 RMK AO2 T01630126
KY49 211335Z AUTO 17011G16KT 10SM OVC021 16/13 A2954 RMK AO2 LTG DSNT S T01620126
KY49 211315Z AUTO 16012G16KT 10SM OVC021 16/13 A2954 RMK AO2 LTG DSNT SE AND S T01620126
KY49 211255Z AUTO 16013G17KT 10SM OVC023 16/13 A2953 RMK AO2 T01630127
KY49 211235Z AUTO 16012G16KT 10SM OVC023 16/13 A2953 RMK AO2 T01640127
KY49 211215Z AUTO 15010G17KT 10SM OVC023 17/13 A2953 RMK AO2 T01650127
KY49 211155Z AUTO 16010G15KT 10SM OVC023 17/13 A2953 RMK AO2 T01650127 10188 20165
KY49 211135Z AUTO 15011G16KT 10SM OVC023 17/13 A2953 RMK AO2 LTG DSNT SE T01660127
KY49 211115Z AUTO 16011KT 10SM OVC027 17/13 A2953 RMK AO2 T01660126
KY49 211055Z AUTO 15011G16KT 10SM OVC027 17/13 A2952 RMK AO2 T01700126
KY49 211035Z AUTO 15008KT 10SM OVC027 17/13 A2953 RMK AO2 T01730127
KY49 211015Z AUTO 16011G17KT 10SM OVC027 17/13 A2953 RMK AO2 T01730127
KY49 210955Z AUTO 15013G17KT 10SM OVC029 17/13 A2952 RMK AO2 T01720125
KY49 210935Z AUTO 16011G16KT 10SM OVC029 17/12 A2952 RMK AO2 T01720124
KY49 210915Z AUTO 16013G18KT 10SM BKN029 OVC035 17/12 A2952 RMK AO2 T01730122